createdAt,value
2024-01-18T00:00:06.744Z,923.35
2024-01-18T00:00:17.818Z,923.36
2024-01-18T00:00:29.780Z,923.36
2024-01-18T00:00:40.884Z,923.36
2024-01-18T00:00:52.828Z,923.37
2024-01-18T00:01:03.839Z,923.37
2024-01-18T00:01:15.800Z,923.37
2024-01-18T00:01:26.755Z,923.38
2024-01-18T00:01:37.761Z,923.38
2024-01-18T00:01:49.764Z,923.39
2024-01-18T00:02:01.747Z,923.39
2024-01-18T00:02:12.782Z,923.40
2024-01-18T00:02:24.748Z,923.41
2024-01-18T00:02:35.765Z,923.42
2024-01-18T00:02:47.750Z,923.42
2024-01-18T00:02:58.817Z,923.43
2024-01-18T00:03:09.852Z,923.44
2024-01-18T00:03:21.833Z,923.45
2024-01-18T00:03:33.798Z,923.46
2024-01-18T00:03:44.851Z,923.46
2024-01-18T00:03:55.772Z,923.47
2024-01-18T00:04:06.826Z,923.47
2024-01-18T00:04:18.882Z,923.48
2024-01-18T00:04:30.829Z,923.48
2024-01-18T00:04:42.847Z,923.49
2024-01-18T00:04:54.766Z,923.49
2024-01-18T00:05:06.762Z,923.49
2024-01-18T00:05:18.755Z,923.49
2024-01-18T00:05:30.741Z,923.49
2024-01-18T00:05:41.757Z,923.49
2024-01-18T00:05:53.846Z,923.48
2024-01-18T00:06:04.863Z,923.48
2024-01-18T00:06:15.835Z,923.48
2024-01-18T00:06:27.814Z,923.47
2024-01-18T00:06:38.772Z,923.47
2024-01-18T00:06:49.819Z,923.47
2024-01-18T00:07:00.898Z,923.47
2024-01-18T00:07:12.779Z,923.46
2024-01-18T00:07:24.810Z,923.47
2024-01-18T00:07:35.801Z,923.47
2024-01-18T00:07:46.743Z,923.47
2024-01-18T00:07:57.761Z,923.47
2024-01-18T00:08:09.752Z,923.47
2024-01-18T00:08:20.767Z,923.47
2024-01-18T00:08:32.750Z,923.47
2024-01-18T00:08:43.748Z,923.47
2024-01-18T00:08:54.766Z,923.48
2024-01-18T00:09:06.791Z,923.48
2024-01-18T00:09:18.804Z,923.48
2024-01-18T00:09:30.799Z,923.48
2024-01-18T00:09:41.758Z,923.48
2024-01-18T00:09:53.746Z,923.48
2024-01-18T00:10:04.747Z,923.48
2024-01-18T00:10:15.773Z,923.49
2024-01-18T00:10:27.834Z,923.49
2024-01-18T00:10:39.781Z,923.50
2024-01-18T00:10:51.746Z,923.51
2024-01-18T00:11:02.745Z,923.52
2024-01-18T00:11:13.741Z,923.53
2024-01-18T00:11:24.759Z,923.54
2024-01-18T00:11:36.757Z,923.55
2024-01-18T00:11:48.742Z,923.57
2024-01-18T00:11:59.773Z,923.58
2024-01-18T00:12:10.793Z,923.59
2024-01-18T00:12:21.864Z,923.60
2024-01-18T00:12:33.802Z,923.61
2024-01-18T00:12:44.771Z,923.62
2024-01-18T00:12:56.777Z,923.63
2024-01-18T00:13:08.766Z,923.64
2024-01-18T00:13:20.784Z,923.64
2024-01-18T00:13:32.782Z,923.65
2024-01-18T00:13:44.783Z,923.66
2024-01-18T00:13:56.753Z,923.66
2024-01-18T00:14:07.758Z,923.67
2024-01-18T00:14:19.754Z,923.68
2024-01-18T00:14:31.744Z,923.68
2024-01-18T00:14:42.752Z,923.68
2024-01-18T00:14:53.807Z,923.69
2024-01-18T00:15:05.801Z,923.69
2024-01-18T00:15:17.851Z,923.70
2024-01-18T00:15:29.773Z,923.70
2024-01-18T00:15:40.790Z,923.70
2024-01-18T00:15:51.748Z,923.71
2024-01-18T00:16:02.757Z,923.71
2024-01-18T00:16:13.771Z,923.72
2024-01-18T00:16:25.782Z,923.73
2024-01-18T00:16:38.859Z,923.74
2024-01-18T00:16:48.739Z,923.74
2024-01-18T00:16:59.797Z,923.75
2024-01-18T00:17:11.798Z,923.76
2024-01-18T00:17:23.875Z,923.77
2024-01-18T00:17:35.814Z,923.78
2024-01-18T00:17:47.781Z,923.79
2024-01-18T00:17:59.002Z,923.80
2024-01-18T00:18:10.900Z,923.80
2024-01-18T00:18:22.872Z,923.81
2024-01-18T00:18:34.919Z,923.82
2024-01-18T00:18:46.876Z,923.82
2024-01-18T00:18:57.844Z,923.83
2024-01-18T00:19:08.868Z,923.83
2024-01-18T00:19:19.819Z,923.84
2024-01-18T00:19:31.819Z,923.85
2024-01-18T00:19:43.957Z,923.84
2024-01-18T00:19:54.791Z,923.85
2024-01-18T00:20:05.768Z,923.86
2024-01-18T00:20:17.757Z,923.86
2024-01-18T00:20:29.753Z,923.87
2024-01-18T00:20:40.788Z,923.87
2024-01-18T00:20:51.777Z,923.87
2024-01-18T00:21:03.774Z,923.88
2024-01-18T00:21:15.769Z,923.88
2024-01-18T00:21:27.783Z,923.88
2024-01-18T00:21:38.804Z,923.88
2024-01-18T00:21:49.758Z,923.88
2024-01-18T00:22:00.768Z,923.87
2024-01-18T00:22:12.757Z,923.87
2024-01-18T00:22:24.739Z,923.87
2024-01-18T00:22:36.738Z,923.87
2024-01-18T00:22:47.807Z,923.86
2024-01-18T00:22:59.774Z,923.86
2024-01-18T00:23:11.757Z,923.85
2024-01-18T00:23:23.737Z,923.85
2024-01-18T00:23:34.748Z,923.84
2024-01-18T00:23:45.770Z,923.84
2024-01-18T00:23:57.798Z,923.83
2024-01-18T00:24:09.784Z,923.82
2024-01-18T00:24:20.816Z,923.82
2024-01-18T00:24:31.861Z,923.81
2024-01-18T00:24:43.735Z,923.81
2024-01-18T00:24:54.755Z,923.81
2024-01-18T00:25:06.749Z,923.81
2024-01-18T00:25:17.757Z,923.80
2024-01-18T00:25:29.746Z,923.80
2024-01-18T00:25:40.772Z,923.79
2024-01-18T00:25:51.773Z,923.79
2024-01-18T00:26:03.763Z,923.79
2024-01-18T00:26:15.775Z,923.79
2024-01-18T00:26:27.758Z,923.79
2024-01-18T00:26:39.748Z,923.79
2024-01-18T00:26:50.789Z,923.79
2024-01-18T00:27:01.746Z,923.79
2024-01-18T00:27:13.779Z,923.79
2024-01-18T00:27:24.744Z,923.79
2024-01-18T00:27:35.863Z,923.80
2024-01-18T00:27:47.778Z,923.80
2024-01-18T00:27:59.762Z,923.80
2024-01-18T00:28:11.749Z,923.81
2024-01-18T00:28:23.734Z,923.81
2024-01-18T00:28:34.747Z,923.82
2024-01-18T00:28:45.775Z,923.82
2024-01-18T00:28:57.744Z,923.82
2024-01-18T00:29:08.766Z,923.83
2024-01-18T00:29:20.752Z,923.83
2024-01-18T00:29:32.772Z,923.83
2024-01-18T00:29:43.777Z,923.84
2024-01-18T00:29:54.733Z,923.84
2024-01-18T00:30:05.767Z,923.84
2024-01-18T00:30:17.756Z,923.84
2024-01-18T00:30:29.809Z,923.83
2024-01-18T00:30:40.766Z,923.83
2024-01-18T00:30:51.737Z,923.83
2024-01-18T00:31:02.753Z,923.83
2024-01-18T00:31:13.763Z,923.82
2024-01-18T00:31:25.743Z,923.82
2024-01-18T00:31:36.760Z,923.82
2024-01-18T00:31:47.776Z,923.82
2024-01-18T00:31:59.741Z,923.82
2024-01-18T00:32:10.759Z,923.83
2024-01-18T00:32:22.772Z,923.83
2024-01-18T00:32:34.760Z,923.84
2024-01-18T00:32:46.778Z,923.84
2024-01-18T00:32:57.787Z,923.84
2024-01-18T00:33:08.812Z,923.84
2024-01-18T00:33:19.901Z,923.85
2024-01-18T00:33:30.768Z,923.85
2024-01-18T00:33:41.808Z,923.85
2024-01-18T00:33:52.824Z,923.86
2024-01-18T00:34:03.831Z,923.86
2024-01-18T00:34:15.761Z,923.86
2024-01-18T00:34:27.746Z,923.87
2024-01-18T00:34:38.767Z,923.87
2024-01-18T00:34:50.752Z,923.87
2024-01-18T00:35:01.897Z,923.88
2024-01-18T00:35:12.768Z,923.88
2024-01-18T00:35:24.772Z,923.88
2024-01-18T00:35:35.809Z,923.88
2024-01-18T00:35:47.837Z,923.88
2024-01-18T00:35:58.831Z,923.88
2024-01-18T00:36:09.806Z,923.88
2024-01-18T00:36:20.791Z,923.88
2024-01-18T00:36:32.811Z,923.89
2024-01-18T00:36:43.840Z,923.89
2024-01-18T00:36:55.769Z,923.89
2024-01-18T00:37:07.782Z,923.90
2024-01-18T00:37:19.766Z,923.90
2024-01-18T00:37:31.795Z,923.91
2024-01-18T00:37:42.716Z,923.91
2024-01-18T00:37:53.752Z,923.92
2024-01-18T00:38:04.774Z,923.92
2024-01-18T00:38:16.795Z,923.93
2024-01-18T00:38:28.783Z,923.94
2024-01-18T00:38:40.780Z,923.95
2024-01-18T00:38:52.828Z,923.95
2024-01-18T00:39:04.847Z,923.96
2024-01-18T00:39:16.813Z,923.97
2024-01-18T00:39:28.842Z,923.97
2024-01-18T00:39:40.844Z,923.98
2024-01-18T00:39:51.804Z,923.99
2024-01-18T00:40:03.779Z,924.00
2024-01-18T00:40:15.785Z,924.01
2024-01-18T00:40:27.763Z,924.01
2024-01-18T00:40:39.763Z,924.02
2024-01-18T00:40:51.810Z,924.03
2024-01-18T00:41:03.767Z,924.03
2024-01-18T00:41:15.738Z,924.04
2024-01-18T00:41:26.735Z,924.05
2024-01-18T00:41:37.746Z,924.05
2024-01-18T00:41:48.767Z,924.06
2024-01-18T00:42:00.879Z,924.07
2024-01-18T00:42:12.752Z,924.07
2024-01-18T00:42:23.810Z,924.08
2024-01-18T00:42:35.800Z,924.08
2024-01-18T00:42:47.794Z,924.09
2024-01-18T00:42:59.799Z,924.10
2024-01-18T00:43:11.777Z,924.10
2024-01-18T00:43:23.743Z,924.11
2024-01-18T00:43:34.777Z,924.11
2024-01-18T00:43:46.759Z,924.12
2024-01-18T00:43:57.761Z,924.12
2024-01-18T00:44:08.769Z,924.13
2024-01-18T00:44:20.742Z,924.13
2024-01-18T00:44:31.747Z,924.14
2024-01-18T00:44:42.758Z,924.14
2024-01-18T00:44:54.812Z,924.14
2024-01-18T00:45:05.761Z,924.15
2024-01-18T00:45:18.803Z,924.15
2024-01-18T00:45:27.840Z,924.16
2024-01-18T00:45:38.786Z,924.16
2024-01-18T00:45:49.769Z,924.16
2024-01-18T00:46:01.767Z,924.17
2024-01-18T00:46:12.766Z,924.17
2024-01-18T00:46:24.747Z,924.17
2024-01-18T00:46:35.756Z,924.18
2024-01-18T00:46:46.748Z,924.18
2024-01-18T00:46:57.754Z,924.18
2024-01-18T00:47:08.764Z,924.18
2024-01-18T00:47:19.770Z,924.18
2024-01-18T00:47:31.820Z,924.18
2024-01-18T00:47:42.781Z,924.18
2024-01-18T00:47:54.854Z,924.18
2024-01-18T00:48:05.812Z,924.19
2024-01-18T00:48:16.895Z,924.19
2024-01-18T00:48:28.795Z,924.18
2024-01-18T00:48:39.910Z,924.19
2024-01-18T00:48:50.931Z,924.18
2024-01-18T00:49:01.881Z,924.18
2024-01-18T00:49:13.019Z,924.18
2024-01-18T00:49:24.839Z,924.18
2024-01-18T00:49:35.828Z,924.18
2024-01-18T00:49:47.815Z,924.17
2024-01-18T00:49:58.773Z,924.17
2024-01-18T00:50:10.740Z,924.17
2024-01-18T00:50:21.765Z,924.17
2024-01-18T00:50:33.742Z,924.16
2024-01-18T00:50:44.751Z,924.16
2024-01-18T00:50:55.804Z,924.16
2024-01-18T00:51:06.767Z,924.16
2024-01-18T00:51:17.741Z,924.16
2024-01-18T00:51:28.819Z,924.15
2024-01-18T00:51:39.947Z,924.15
2024-01-18T00:51:51.781Z,924.15
2024-01-18T00:52:03.767Z,924.15
2024-01-18T00:52:14.774Z,924.15
2024-01-18T00:52:26.765Z,924.15
2024-01-18T00:52:37.769Z,924.15
2024-01-18T00:52:49.765Z,924.15
2024-01-18T00:53:01.760Z,924.16
2024-01-18T00:53:12.768Z,924.16
2024-01-18T00:53:26.482Z,924.16
2024-01-18T00:53:35.778Z,924.17
2024-01-18T00:53:47.784Z,924.17
2024-01-18T00:53:59.775Z,924.18
2024-01-18T00:54:11.804Z,924.18
2024-01-18T00:54:22.741Z,924.18
2024-01-18T00:54:33.918Z,924.18
2024-01-18T00:54:45.766Z,924.18
2024-01-18T00:54:57.746Z,924.18
2024-01-18T00:55:08.767Z,924.18
2024-01-18T00:55:20.757Z,924.19
2024-01-18T00:55:32.759Z,924.19
2024-01-18T00:55:44.754Z,924.19
2024-01-18T00:55:55.763Z,924.19
2024-01-18T00:56:07.751Z,924.20
2024-01-18T00:56:19.749Z,924.20
2024-01-18T00:56:30.788Z,924.20
2024-01-18T00:56:42.787Z,924.20
2024-01-18T00:56:54.824Z,924.21
2024-01-18T00:57:06.741Z,924.21
2024-01-18T00:57:17.807Z,924.21
2024-01-18T00:57:28.797Z,924.21
2024-01-18T00:57:39.841Z,924.22
2024-01-18T00:57:51.776Z,924.22
2024-01-18T00:58:03.776Z,924.22
2024-01-18T00:58:15.761Z,924.22
2024-01-18T00:58:26.772Z,924.23
2024-01-18T00:58:37.785Z,924.23
2024-01-18T00:58:49.780Z,924.23
2024-01-18T00:59:00.736Z,924.23
2024-01-18T00:59:11.772Z,924.23
2024-01-18T00:59:23.763Z,924.23
2024-01-18T00:59:34.763Z,924.23
2024-01-18T00:59:46.739Z,924.23
2024-01-18T00:59:57.812Z,924.24
2024-01-18T01:00:08.768Z,924.23
2024-01-18T01:00:20.773Z,924.23
2024-01-18T01:00:32.839Z,924.23
2024-01-18T01:00:44.825Z,924.22
2024-01-18T01:00:55.841Z,924.22
2024-01-18T01:01:06.831Z,924.22
2024-01-18T01:01:18.952Z,924.21
2024-01-18T01:01:29.849Z,924.21
2024-01-18T01:01:40.806Z,924.21
2024-01-18T01:01:52.791Z,924.21
2024-01-18T01:02:04.767Z,924.20
2024-01-18T01:02:16.756Z,924.20
2024-01-18T01:02:28.747Z,924.20
2024-01-18T01:02:39.818Z,924.20
2024-01-18T01:02:51.821Z,924.20
2024-01-18T01:03:02.774Z,924.20
2024-01-18T01:03:14.763Z,924.20
2024-01-18T01:03:26.885Z,924.20
2024-01-18T01:03:37.802Z,924.20
2024-01-18T01:03:48.752Z,924.21
2024-01-18T01:03:59.810Z,924.21
2024-01-18T01:04:10.786Z,924.21
2024-01-18T01:04:21.756Z,924.22
2024-01-18T01:04:32.824Z,924.22
2024-01-18T01:04:43.816Z,924.22
2024-01-18T01:04:55.736Z,924.22
2024-01-18T01:05:06.737Z,924.23
2024-01-18T01:05:17.737Z,924.23
2024-01-18T01:05:28.750Z,924.24
2024-01-18T01:05:39.761Z,924.24
2024-01-18T01:05:51.852Z,924.24
2024-01-18T01:06:03.901Z,924.24
2024-01-18T01:06:14.728Z,924.24
2024-01-18T01:06:25.778Z,924.24
2024-01-18T01:06:37.821Z,924.24
2024-01-18T01:06:49.756Z,924.25
2024-01-18T01:07:01.845Z,924.24
2024-01-18T01:07:12.770Z,924.24
2024-01-18T01:07:24.847Z,924.25
2024-01-18T01:07:35.796Z,924.25
2024-01-18T01:07:47.791Z,924.26
2024-01-18T01:07:58.750Z,924.26
2024-01-18T01:08:10.822Z,924.26
2024-01-18T01:08:21.783Z,924.27
2024-01-18T01:08:32.750Z,924.27
2024-01-18T01:08:43.749Z,924.28
2024-01-18T01:08:54.791Z,924.28
2024-01-18T01:09:05.762Z,924.29
2024-01-18T01:09:16.899Z,924.29
2024-01-18T01:09:27.785Z,924.30
2024-01-18T01:09:38.789Z,924.31
2024-01-18T01:09:49.737Z,924.31
2024-01-18T01:10:00.752Z,924.32
2024-01-18T01:10:11.767Z,924.33
2024-01-18T01:10:23.756Z,924.33
2024-01-18T01:10:35.734Z,924.33
2024-01-18T01:10:46.757Z,924.33
2024-01-18T01:10:57.876Z,924.34
2024-01-18T01:11:08.733Z,924.34
2024-01-18T01:11:19.745Z,924.34
2024-01-18T01:11:30.775Z,924.34
2024-01-18T01:11:41.785Z,924.34
2024-01-18T01:11:53.796Z,924.34
2024-01-18T01:12:05.803Z,924.34
2024-01-18T01:12:16.817Z,924.34
2024-01-18T01:12:27.813Z,924.35
2024-01-18T01:12:39.714Z,924.34
2024-01-18T01:12:50.751Z,924.34
2024-01-18T01:13:02.750Z,924.35
2024-01-18T01:13:13.765Z,924.35
2024-01-18T01:13:24.765Z,924.35
2024-01-18T01:13:35.802Z,924.35
2024-01-18T01:13:47.777Z,924.34
2024-01-18T01:13:59.747Z,924.35
2024-01-18T01:14:10.772Z,924.34
2024-01-18T01:14:22.789Z,924.35
2024-01-18T01:14:33.748Z,924.35
2024-01-18T01:14:45.837Z,924.35
2024-01-18T01:14:56.867Z,924.36
2024-01-18T01:15:08.937Z,924.36
2024-01-18T01:15:20.874Z,924.37
2024-01-18T01:15:32.846Z,924.37
2024-01-18T01:15:43.791Z,924.38
2024-01-18T01:15:54.801Z,924.38
2024-01-18T01:16:06.907Z,924.39
2024-01-18T01:16:18.910Z,924.39
2024-01-18T01:16:30.763Z,924.40
2024-01-18T01:16:41.787Z,924.40
2024-01-18T01:16:53.770Z,924.41
2024-01-18T01:17:05.762Z,924.41
2024-01-18T01:17:17.760Z,924.42
2024-01-18T01:17:29.813Z,924.43
2024-01-18T01:17:40.770Z,924.43
2024-01-18T01:17:51.826Z,924.44
2024-01-18T01:18:02.853Z,924.45
2024-01-18T01:18:14.837Z,924.45
2024-01-18T01:18:25.810Z,924.46
2024-01-18T01:18:37.861Z,924.47
2024-01-18T01:18:48.750Z,924.48
2024-01-18T01:18:59.892Z,924.48
2024-01-18T01:19:10.828Z,924.49
2024-01-18T01:19:22.788Z,924.50
2024-01-18T01:19:34.789Z,924.51
2024-01-18T01:19:46.816Z,924.51
2024-01-18T01:20:00.089Z,924.52
2024-01-18T01:20:10.915Z,924.53
2024-01-18T01:20:22.788Z,924.53
2024-01-18T01:20:34.758Z,924.55
2024-01-18T01:20:46.752Z,924.55
2024-01-18T01:20:57.895Z,924.56
2024-01-18T01:21:08.774Z,924.57
2024-01-18T01:21:20.780Z,924.58
2024-01-18T01:21:32.764Z,924.58
2024-01-18T01:21:44.781Z,924.59
2024-01-18T01:21:56.772Z,924.59
2024-01-18T01:22:07.767Z,924.60
2024-01-18T01:22:19.757Z,924.60
2024-01-18T01:22:30.781Z,924.60
2024-01-18T01:22:42.759Z,924.60
2024-01-18T01:22:53.761Z,924.61
2024-01-18T01:23:05.751Z,924.61
2024-01-18T01:23:16.783Z,924.61
2024-01-18T01:23:28.755Z,924.61
2024-01-18T01:23:39.828Z,924.61
2024-01-18T01:23:50.761Z,924.61
2024-01-18T01:24:01.866Z,924.61
2024-01-18T01:24:12.803Z,924.61
2024-01-18T01:24:24.834Z,924.61
2024-01-18T01:24:36.798Z,924.61
2024-01-18T01:24:47.717Z,924.62
2024-01-18T01:24:58.723Z,924.62
2024-01-18T01:25:09.734Z,924.62
2024-01-18T01:25:20.729Z,924.63
2024-01-18T01:25:31.792Z,924.63
2024-01-18T01:25:42.809Z,924.64
2024-01-18T01:25:54.794Z,924.64
2024-01-18T01:26:06.763Z,924.65
2024-01-18T01:26:17.765Z,924.65
2024-01-18T01:26:29.780Z,924.66
2024-01-18T01:26:41.806Z,924.66
2024-01-18T01:26:52.765Z,924.67
2024-01-18T01:27:04.779Z,924.67
2024-01-18T01:27:15.740Z,924.68
2024-01-18T01:27:26.819Z,924.69
2024-01-18T01:27:37.756Z,924.69
2024-01-18T01:27:49.748Z,924.70
2024-01-18T01:28:00.776Z,924.70
2024-01-18T01:28:11.736Z,924.71
2024-01-18T01:28:22.742Z,924.71
2024-01-18T01:28:33.770Z,924.71
2024-01-18T01:28:45.776Z,924.72
2024-01-18T01:28:56.713Z,924.72
2024-01-18T01:29:08.744Z,924.72
2024-01-18T01:29:18.733Z,924.73
2024-01-18T01:29:29.760Z,924.73
2024-01-18T01:29:40.754Z,924.73
2024-01-18T01:29:52.774Z,924.73
2024-01-18T01:30:04.777Z,924.74
2024-01-18T01:30:15.764Z,924.74
2024-01-18T01:30:26.777Z,924.74
2024-01-18T01:30:37.947Z,924.73
2024-01-18T01:30:49.761Z,924.74
2024-01-18T01:31:00.772Z,924.74
2024-01-18T01:31:12.758Z,924.73
2024-01-18T01:31:24.746Z,924.73
2024-01-18T01:31:36.757Z,924.73
2024-01-18T01:31:48.755Z,924.72
2024-01-18T01:32:00.747Z,924.72
2024-01-18T01:32:12.752Z,924.72
2024-01-18T01:32:23.764Z,924.71
2024-01-18T01:32:34.763Z,924.71
2024-01-18T01:32:45.816Z,924.71
2024-01-18T01:32:57.840Z,924.71
2024-01-18T01:33:09.808Z,924.70
2024-01-18T01:33:20.958Z,924.70
2024-01-18T01:33:31.946Z,924.70
2024-01-18T01:33:43.845Z,924.70
2024-01-18T01:33:55.889Z,924.69
2024-01-18T01:34:07.841Z,924.69
2024-01-18T01:34:18.896Z,924.69
2024-01-18T01:34:29.881Z,924.69
2024-01-18T01:34:41.805Z,924.69
2024-01-18T01:34:52.776Z,924.70
2024-01-18T01:35:03.744Z,924.70
2024-01-18T01:35:14.752Z,924.70
2024-01-18T01:35:25.792Z,924.70
2024-01-18T01:35:37.772Z,924.70
2024-01-18T01:35:49.766Z,924.70
2024-01-18T01:36:01.889Z,924.71
2024-01-18T01:36:12.774Z,924.71
2024-01-18T01:36:23.875Z,924.71
2024-01-18T01:36:35.896Z,924.71
2024-01-18T01:36:46.783Z,924.71
2024-01-18T01:36:57.764Z,924.72
2024-01-18T01:37:08.772Z,924.72
2024-01-18T01:37:20.746Z,924.72
2024-01-18T01:37:31.769Z,924.72
2024-01-18T01:37:43.767Z,924.72
2024-01-18T01:37:55.780Z,924.73
2024-01-18T01:38:07.770Z,924.73
2024-01-18T01:38:19.782Z,924.74
2024-01-18T01:38:30.737Z,924.74
2024-01-18T01:38:42.766Z,924.74
2024-01-18T01:38:54.776Z,924.75
2024-01-18T01:39:06.765Z,924.76
2024-01-18T01:39:18.781Z,924.76
2024-01-18T01:39:29.970Z,924.77
2024-01-18T01:39:41.788Z,924.77
2024-01-18T01:39:53.784Z,924.78
2024-01-18T01:40:05.800Z,924.78
2024-01-18T01:40:17.783Z,924.79
2024-01-18T01:40:29.794Z,924.80
2024-01-18T01:40:41.766Z,924.80
2024-01-18T01:40:53.748Z,924.81
2024-01-18T01:41:04.772Z,924.82
2024-01-18T01:41:15.775Z,924.82
2024-01-18T01:41:27.769Z,924.83
2024-01-18T01:41:39.753Z,924.84
2024-01-18T01:41:50.772Z,924.85
2024-01-18T01:42:02.829Z,924.85
2024-01-18T01:42:13.796Z,924.86
2024-01-18T01:42:24.803Z,924.86
2024-01-18T01:42:35.862Z,924.86
2024-01-18T01:42:46.814Z,924.87
2024-01-18T01:42:58.804Z,924.87
2024-01-18T01:43:10.797Z,924.88
2024-01-18T01:43:22.763Z,924.88
2024-01-18T01:43:33.779Z,924.89
2024-01-18T01:43:45.761Z,924.89
2024-01-18T01:43:56.826Z,924.89
2024-01-18T01:44:07.770Z,924.89
2024-01-18T01:44:19.788Z,924.89
2024-01-18T01:44:30.760Z,924.89
2024-01-18T01:44:41.730Z,924.90
2024-01-18T01:44:52.790Z,924.90
2024-01-18T01:45:04.771Z,924.90
2024-01-18T01:45:16.898Z,924.90
2024-01-18T01:45:27.794Z,924.90
2024-01-18T01:45:38.788Z,924.90
2024-01-18T01:45:49.739Z,924.90
2024-01-18T01:46:00.784Z,924.90
2024-01-18T01:46:12.782Z,924.90
2024-01-18T01:46:24.768Z,924.90
2024-01-18T01:46:36.762Z,924.91
2024-01-18T01:46:48.735Z,924.91
2024-01-18T01:46:59.767Z,924.91
2024-01-18T01:47:11.749Z,924.91
2024-01-18T01:47:22.763Z,924.91
2024-01-18T01:47:33.741Z,924.91
2024-01-18T01:47:44.822Z,924.91
2024-01-18T01:47:55.828Z,924.91
2024-01-18T01:48:07.826Z,924.91
2024-01-18T01:48:18.956Z,924.91
2024-01-18T01:48:30.935Z,924.90
2024-01-18T01:48:41.794Z,924.91
2024-01-18T01:48:52.836Z,924.91
2024-01-18T01:49:04.851Z,924.91
2024-01-18T01:49:15.832Z,924.91
2024-01-18T01:49:26.795Z,924.92
2024-01-18T01:49:38.798Z,924.91
2024-01-18T01:49:49.815Z,924.92
2024-01-18T01:50:00.786Z,924.92
2024-01-18T01:50:12.785Z,924.93
2024-01-18T01:50:24.777Z,924.93
2024-01-18T01:50:36.755Z,924.94
2024-01-18T01:50:47.771Z,924.94
2024-01-18T01:50:59.758Z,924.94
2024-01-18T01:51:11.765Z,924.94
2024-01-18T01:51:23.800Z,924.94
2024-01-18T01:51:35.949Z,924.94
2024-01-18T01:51:47.773Z,924.94
2024-01-18T01:51:59.755Z,924.94
2024-01-18T01:52:11.764Z,924.93
2024-01-18T01:52:22.771Z,924.93
2024-01-18T01:52:34.771Z,924.93
2024-01-18T01:52:46.753Z,924.92
2024-01-18T01:52:57.760Z,924.92
2024-01-18T01:53:08.766Z,924.92
2024-01-18T01:53:20.757Z,924.92
2024-01-18T01:53:31.773Z,924.92
2024-01-18T01:53:43.770Z,924.92
2024-01-18T01:53:54.811Z,924.92
2024-01-18T01:54:05.777Z,924.92
2024-01-18T01:54:17.894Z,924.92
2024-01-18T01:54:28.787Z,924.93
2024-01-18T01:54:39.848Z,924.92
2024-01-18T01:54:50.735Z,924.92
2024-01-18T01:55:01.797Z,924.92
2024-01-18T01:55:14.586Z,924.92
2024-01-18T01:55:23.807Z,924.92
2024-01-18T01:55:35.794Z,924.92
2024-01-18T01:55:47.772Z,924.92
2024-01-18T01:55:58.771Z,924.92
2024-01-18T01:56:10.735Z,924.93
2024-01-18T01:56:21.757Z,924.93
2024-01-18T01:56:32.771Z,924.93
2024-01-18T01:56:44.762Z,924.93
2024-01-18T01:56:55.843Z,924.93
2024-01-18T01:57:07.805Z,924.94
2024-01-18T01:57:19.840Z,924.94
2024-01-18T01:57:30.850Z,924.94
2024-01-18T01:57:42.921Z,924.95
2024-01-18T01:57:54.753Z,924.95
2024-01-18T01:58:05.754Z,924.96
2024-01-18T01:58:16.807Z,924.96
2024-01-18T01:58:27.741Z,924.96
2024-01-18T01:58:38.740Z,924.96
2024-01-18T01:58:49.742Z,924.96
2024-01-18T01:59:00.755Z,924.96
2024-01-18T01:59:12.736Z,924.96
2024-01-18T01:59:23.749Z,924.96
2024-01-18T01:59:34.752Z,924.95
2024-01-18T01:59:45.737Z,924.95
2024-01-18T01:59:56.785Z,924.95
2024-01-18T02:00:07.750Z,924.95
2024-01-18T02:00:18.789Z,924.94
2024-01-18T02:00:29.751Z,924.94
2024-01-18T02:00:40.799Z,924.95
2024-01-18T02:00:51.816Z,924.95
2024-01-18T02:01:03.804Z,924.95
2024-01-18T02:01:14.753Z,924.96
2024-01-18T02:01:25.829Z,924.97
2024-01-18T02:01:36.768Z,924.97
2024-01-18T02:01:47.774Z,924.97
2024-01-18T02:01:59.767Z,924.98
2024-01-18T02:02:11.754Z,924.99
2024-01-18T02:02:22.768Z,924.99
2024-01-18T02:02:34.740Z,925.00
2024-01-18T02:02:45.744Z,925.00
2024-01-18T02:02:56.851Z,925.00
2024-01-18T02:03:08.884Z,925.00
2024-01-18T02:03:19.801Z,925.00
2024-01-18T02:03:30.779Z,925.00
2024-01-18T02:03:41.860Z,925.00
2024-01-18T02:03:52.826Z,925.00
2024-01-18T02:04:03.878Z,925.00
2024-01-18T02:04:15.909Z,925.00
2024-01-18T02:04:27.851Z,925.00
2024-01-18T02:04:39.836Z,925.00
2024-01-18T02:04:51.788Z,925.00
2024-01-18T02:05:03.848Z,925.01
2024-01-18T02:05:14.779Z,925.01
2024-01-18T02:05:26.582Z,925.01
2024-01-18T02:05:36.825Z,925.02
2024-01-18T02:05:47.817Z,925.02
2024-01-18T02:05:58.912Z,925.02
2024-01-18T02:06:09.817Z,925.02
2024-01-18T02:06:20.775Z,925.02
2024-01-18T02:06:31.806Z,925.02
2024-01-18T02:06:42.821Z,925.03
2024-01-18T02:06:53.851Z,925.03
2024-01-18T02:07:04.713Z,925.02
2024-01-18T02:07:15.757Z,925.02
2024-01-18T02:07:26.760Z,925.02
2024-01-18T02:07:37.768Z,925.01
2024-01-18T02:07:49.748Z,925.01
2024-01-18T02:08:00.751Z,925.01
2024-01-18T02:08:11.769Z,925.01
2024-01-18T02:08:22.778Z,925.00
2024-01-18T02:08:34.742Z,925.01
2024-01-18T02:08:45.766Z,925.01
2024-01-18T02:08:57.814Z,925.01
2024-01-18T02:09:08.822Z,925.01
2024-01-18T02:09:19.886Z,925.02
2024-01-18T02:09:31.946Z,925.01
2024-01-18T02:09:43.875Z,925.02
2024-01-18T02:09:55.886Z,925.02
2024-01-18T02:10:07.932Z,925.03
2024-01-18T02:10:19.910Z,925.03
2024-01-18T02:10:31.872Z,925.03
2024-01-18T02:10:42.730Z,925.04
2024-01-18T02:10:53.733Z,925.05
2024-01-18T02:11:04.754Z,925.05
2024-01-18T02:11:15.769Z,925.06
2024-01-18T02:11:27.749Z,925.07
2024-01-18T02:11:38.797Z,925.08
2024-01-18T02:11:50.763Z,925.09
2024-01-18T02:12:02.777Z,925.10
2024-01-18T02:12:13.785Z,925.11
2024-01-18T02:12:24.805Z,925.12
2024-01-18T02:12:35.991Z,925.14
2024-01-18T02:12:47.773Z,925.15
2024-01-18T02:12:59.739Z,925.16
2024-01-18T02:13:10.755Z,925.17
2024-01-18T02:13:21.760Z,925.18
2024-01-18T02:13:32.757Z,925.19
2024-01-18T02:13:43.765Z,925.19
2024-01-18T02:13:55.766Z,925.20
2024-01-18T02:14:06.766Z,925.20
2024-01-18T02:14:18.756Z,925.20
2024-01-18T02:14:29.780Z,925.20
2024-01-18T02:14:41.757Z,925.20
2024-01-18T02:14:53.799Z,925.19
2024-01-18T02:15:04.783Z,925.18
2024-01-18T02:15:15.741Z,925.18
2024-01-18T02:15:26.822Z,925.17
2024-01-18T02:15:38.812Z,925.16
2024-01-18T02:15:49.794Z,925.16
2024-01-18T02:16:00.797Z,925.15
2024-01-18T02:16:11.728Z,925.15
2024-01-18T02:16:22.740Z,925.14
2024-01-18T02:16:34.001Z,925.14
2024-01-18T02:16:44.747Z,925.14
2024-01-18T02:16:55.780Z,925.14
2024-01-18T02:17:07.751Z,925.14
2024-01-18T02:17:18.757Z,925.14
2024-01-18T02:17:29.829Z,925.15
2024-01-18T02:17:40.797Z,925.15
2024-01-18T02:17:52.847Z,925.16
2024-01-18T02:18:03.892Z,925.16
2024-01-18T02:18:14.908Z,925.17
2024-01-18T02:18:26.800Z,925.17
2024-01-18T02:18:38.905Z,925.18
2024-01-18T02:18:50.775Z,925.18
2024-01-18T02:19:01.922Z,925.19
2024-01-18T02:19:12.831Z,925.19
2024-01-18T02:19:23.890Z,925.20
2024-01-18T02:19:34.857Z,925.19
2024-01-18T02:19:46.872Z,925.19
2024-01-18T02:19:57.755Z,925.20
2024-01-18T02:20:09.748Z,925.19
2024-01-18T02:20:20.760Z,925.19
2024-01-18T02:20:31.809Z,925.19
2024-01-18T02:20:44.707Z,925.19
2024-01-18T02:20:54.827Z,925.19
2024-01-18T02:21:05.758Z,925.19
2024-01-18T02:21:16.831Z,925.19
2024-01-18T02:21:27.833Z,925.19
2024-01-18T02:21:38.821Z,925.19
2024-01-18T02:21:50.757Z,925.20
2024-01-18T02:22:01.842Z,925.20
2024-01-18T02:22:12.752Z,925.20
2024-01-18T02:22:23.754Z,925.21
2024-01-18T02:22:34.722Z,925.22
2024-01-18T02:22:45.740Z,925.22
2024-01-18T02:22:56.751Z,925.23